Time;durP1;ratioP1;P1;durP2;ratioP2;P2;SDS_P1;SDS_P2;PMS_P1;PMS_P2;Temp;Humidity;BMP_temperature;BMP_pressure;BME280_temperature;BME280_humidity;BME280_pressure;Samples;Min_cycle;Max_cycle;Signal;HPM_P1;HPM_P2
2023/05/04 00:00:34;;;;;;;0.85;0.85;;;;;;;11.35;100.00;97769.00;5111069;28;20464;-78
2023/05/04 00:03:00;;;;;;;2.55;1.02;;;;;;;11.39;100.00;97750.94;5094189;28;20031;-78
2023/05/04 00:05:25;;;;;;;2.22;1.10;;;;;;;11.46;100.00;97754.97;5112559;28;20159;-78
2023/05/04 00:07:51;;;;;;;1.90;1.65;;;;;;;11.44;100.00;97757.72;5110926;28;20023;-77
2023/05/04 00:10:16;;;;;;;3.72;1.38;;;;;;;11.54;100.00;97762.50;5094204;28;20050;-78
2023/05/04 00:12:42;;;;;;;2.15;1.77;;;;;;;11.62;100.00;97766.44;5110851;28;20387;-78
2023/05/04 00:15:08;;;;;;;2.55;2.05;;;;;;;11.66;100.00;97767.13;5094162;28;20020;-78
2023/05/04 00:17:33;;;;;;;0.85;0.85;;;;;;;11.73;100.00;97768.47;5111251;28;20028;-79
2023/05/04 00:19:59;;;;;;;0.65;0.63;;;;;;;11.69;100.00;97758.91;5110905;28;20028;-79
2023/05/04 00:22:24;;;;;;;5.85;2.65;;;;;;;11.67;100.00;97756.28;5094126;28;20065;-78
2023/05/04 00:24:50;;;;;;;0.45;0.45;;;;;;;11.72;100.00;97761.41;5093547;28;20026;-79
2023/05/04 00:27:15;;;;;;;2.33;0.88;;;;;;;11.74;100.00;97764.84;5093879;28;20084;-78
2023/05/04 00:29:41;;;;;;;1.10;0.73;;;;;;;11.69;100.00;97766.94;5110686;28;20051;-78
2023/05/04 00:32:06;;;;;;;3.05;1.42;;;;;;;11.60;100.00;97764.81;5093821;28;20088;-78
2023/05/04 00:34:35;;;;;;;0.95;0.95;;;;;;;11.69;100.00;97769.63;5093634;28;20047;-79
2023/05/04 00:37:00;;;;;;;6.75;1.27;;;;;;;11.67;100.00;97775.06;5094046;28;20031;-79
2023/05/04 00:39:26;;;;;;;0.90;0.80;;;;;;;11.58;100.00;97764.03;5093788;28;20058;-77
2023/05/04 00:41:51;;;;;;;0.80;0.77;;;;;;;11.66;100.00;97769.81;5093725;28;20081;-78
2023/05/04 00:44:17;;;;;;;0.95;0.95;;;;;;;11.58;100.00;97756.00;5093558;28;20020;-80
2023/05/04 00:46:43;;;;;;;1.05;0.82;;;;;;;11.67;100.00;97779.53;5110600;28;20430;-80
2023/05/04 00:49:09;;;;;;;4.05;1.60;;;;;;;11.60;100.00;97770.16;5093638;28;20122;-78
2023/05/04 00:51:34;;;;;;;1.13;1.08;;;;;;;11.48;100.00;97763.75;5093473;28;20460;-78
2023/05/04 00:54:00;;;;;;;0.52;0.52;;;;;;;11.50;100.00;97777.94;5110348;28;20039;-78
2023/05/04 00:56:27;;;;;;;1.15;1.02;;;;;;;11.60;100.00;97784.41;5110621;28;20023;-79
2023/05/04 00:58:54;;;;;;;4.97;1.33;;;;;;;11.56;100.00;97782.03;5093609;28;20027;-79
2023/05/04 01:01:23;;;;;;;2.70;1.20;;;;;;;11.57;100.00;97773.03;5093579;28;20023;-79
2023/05/04 01:03:53;;;;;;;1.13;0.70;;;;;;;11.61;100.00;97774.56;5093701;28;20521;-79
2023/05/04 01:06:22;;;;;;;4.00;1.75;;;;;;;11.69;100.00;97773.13;5093398;28;20020;-79
2023/05/04 01:08:59;;;;;;;0.93;0.70;;;;;;;11.58;100.00;97754.19;5112439;28;20057;-79
2023/05/04 01:11:48;;;;;;;0.70;0.57;;;;;;;11.49;100.00;97748.56;5097504;28;20024;-79
2023/05/04 01:14:13;;;;;;;0.60;0.60;;;;;;;11.52;100.00;97749.22;5107284;28;20119;-79
2023/05/04 01:16:39;;;;;;;20.55;1.42;;;;;;;11.46;100.00;97733.53;5097307;28;20187;-79
2023/05/04 01:19:05;;;;;;;0.80;0.75;;;;;;;11.59;100.00;97739.84;5097140;28;20023;-79
2023/05/04 01:21:30;;;;;;;3.70;1.98;;;;;;;11.60;100.00;97740.69;5114221;28;20494;-79
2023/05/04 01:23:56;;;;;;;1.80;1.70;;;;;;;11.61;100.00;97731.69;5097265;28;20028;-79
2023/05/04 01:26:28;;;;;;;1.55;0.82;;;;;;;11.64;100.00;97736.88;5097071;28;20027;-79
2023/05/04 01:29:15;;;;;;;1.33;1.23;;;;;;;11.69;100.00;97745.50;5114008;28;20457;-79
2023/05/04 01:31:41;;;;;;;1.25;0.80;;;;;;;11.65;100.00;97741.28;5115256;28;20035;-79
2023/05/04 01:34:07;;;;;;;0.40;0.40;;;;;;;11.57;100.00;97732.84;5113725;28;20028;-79
2023/05/04 01:36:33;;;;;;;3.30;1.38;;;;;;;11.58;100.00;97722.03;5096851;28;20035;-79
2023/05/04 01:38:59;;;;;;;1.48;1.10;;;;;;;11.57;100.00;97722.13;5096706;28;20110;-79
2023/05/04 01:41:25;;;;;;;0.70;0.68;;;;;;;11.53;100.00;97724.16;5096658;28;20027;-79
2023/05/04 01:43:51;;;;;;;1.50;1.20;;;;;;;11.56;100.00;97726.66;5113908;28;20019;-79
2023/05/04 01:46:17;;;;;;;1.08;0.93;;;;;;;11.49;100.00;97721.75;5096354;28;20038;-79
2023/05/04 01:48:42;;;;;;;1.30;1.17;;;;;;;11.42;100.00;97708.75;5113624;28;20107;-79
2023/05/04 01:51:07;;;;;;;1.58;0.93;;;;;;;11.50;100.00;97715.47;5096367;28;20023;-79
2023/05/04 01:53:33;;;;;;;2.75;1.02;;;;;;;11.52;100.00;97711.72;5096590;28;20443;-79
2023/05/04 01:55:58;;;;;;;1.23;1.13;;;;;;;11.46;100.00;97716.59;5113666;28;20034;-79
2023/05/04 01:58:24;;;;;;;3.88;1.85;;;;;;;11.40;100.00;97726.75;5096239;28;20026;-78
2023/05/04 02:00:49;;;;;;;1.85;1.10;;;;;;;11.41;100.00;97732.97;5113410;28;20069;-78
2023/05/04 02:03:15;;;;;;;2.05;1.20;;;;;;;11.43;100.00;97728.38;5113174;28;20104;-78
2023/05/04 02:05:40;;;;;;;1.75;0.77;;;;;;;11.36;100.00;97727.88;5114654;28;20032;-78
2023/05/04 02:08:06;;;;;;;1.58;1.15;;;;;;;11.42;100.00;97738.22;5112875;28;20023;-78
2023/05/04 02:10:31;;;;;;;1.98;1.17;;;;;;;11.39;100.00;97733.06;5113134;28;20035;-78
2023/05/04 02:12:58;;;;;;;2.28;0.70;;;;;;;11.30;100.00;97740.78;5096013;28;20043;-78
2023/05/04 02:15:23;;;;;;;27.15;2.83;;;;;;;11.37;100.00;97753.72;5095889;28;20036;-78
2023/05/04 02:17:49;;;;;;;28.98;1.80;;;;;;;11.31;100.00;97748.75;5095976;28;20031;-78
2023/05/04 02:20:15;;;;;;;2.03;1.77;;;;;;;11.46;100.00;97759.44;5112361;28;20505;-78
2023/05/04 02:22:40;;;;;;;270.15;163.88;;;;;;;11.48;100.00;97760.22;5113145;28;20042;-78
2023/05/04 02:25:06;;;;;;;16.35;10.50;;;;;;;11.54;100.00;97767.88;5095979;28;20422;-78
2023/05/04 02:27:31;;;;;;;3.47;2.17;;;;;;;11.51;100.00;97760.88;5095940;28;20030;-78
2023/05/04 02:29:57;;;;;;;7.03;1.90;;;;;;;11.53;100.00;97763.47;5112924;28;20047;-78
2023/05/04 02:32:24;;;;;;;1.67;1.48;;;;;;;11.51;100.00;97763.56;5095658;28;20038;-79
2023/05/04 02:34:50;;;;;;;6.93;3.05;;;;;;;11.49;100.00;97761.94;5095747;28;20483;-79
2023/05/04 02:37:16;;;;;;;2.38;1.42;;;;;;;11.41;100.00;97757.91;5095357;28;20023;-79
2023/05/04 02:39:42;;;;;;;2.25;1.50;;;;;;;11.38;100.00;97762.63;5095672;28;20038;-79
2023/05/04 02:42:07;;;;;;;2.15;1.70;;;;;;;11.34;100.00;97755.72;5095888;28;20039;-78
2023/05/04 02:44:36;;;;;;;1.52;1.08;;;;;;;11.35;100.00;97760.13;5112870;28;20027;-80
2023/05/04 02:47:01;;;;;;;6.78;2.42;;;;;;;11.47;100.00;97772.75;5112549;28;20438;-79
2023/05/04 02:49:27;;;;;;;1.45;0.65;;;;;;;11.37;100.00;97774.28;5095673;28;20036;-79
2023/05/04 02:51:52;;;;;;;2.25;1.38;;;;;;;11.38;100.00;97779.53;5112595;28;20053;-78
2023/05/04 02:54:18;;;;;;;2.35;1.55;;;;;;;11.40;100.00;97792.84;5095364;28;20115;-79
2023/05/04 02:56:43;;;;;;;5.45;1.75;;;;;;;11.41;100.00;97783.88;5112633;28;20364;-78
2023/05/04 02:59:09;;;;;;;7.03;3.28;;;;;;;11.43;100.00;97795.34;5095339;28;20042;-80
2023/05/04 03:01:34;;;;;;;1.48;1.38;;;;;;;11.42;100.00;97790.91;5095268;28;20525;-79
2023/05/04 03:04:00;;;;;;;2.08;1.55;;;;;;;11.53;100.00;97798.31;5112305;28;20106;-79
2023/05/04 03:06:25;;;;;;;8.40;2.08;;;;;;;11.53;100.00;97798.31;5094830;28;20036;-79
2023/05/04 03:08:51;;;;;;;9.88;1.95;;;;;;;11.50;100.00;97791.31;5112478;28;20111;-79
2023/05/04 03:11:16;;;;;;;4.22;2.70;;;;;;;11.54;100.00;97800.88;5094978;28;20034;-79
2023/05/04 03:13:42;;;;;;;3.67;2.45;;;;;;;11.56;100.00;97796.31;5111860;28;20040;-79
2023/05/04 03:16:07;;;;;;;2.15;1.50;;;;;;;11.49;100.00;97794.09;5095088;28;20054;-79
2023/05/04 03:18:35;;;;;;;4.85;2.47;;;;;;;11.42;100.00;97807.84;5112970;28;20088;-79
2023/05/04 03:21:01;;;;;;;1.38;1.27;;;;;;;11.36;100.00;97797.53;5112106;28;20038;-79
2023/05/04 03:23:26;;;;;;;1.73;1.63;;;;;;;11.43;100.00;97806.03;5094592;28;20027;-79
2023/05/04 03:25:52;;;;;;;2.58;1.77;;;;;;;11.36;100.00;97800.19;5111798;28;20046;-79
2023/05/04 03:28:18;;;;;;;6.22;2.65;;;;;;;11.39;100.00;97813.41;5095032;28;20077;-78
2023/05/04 03:30:43;;;;;;;6.82;2.28;;;;;;;11.36;100.00;97816.25;5093524;28;20061;-79
2023/05/04 03:33:09;;;;;;;3.75;1.63;;;;;;;11.44;100.00;97818.50;5112174;28;20459;-79
2023/05/04 03:35:34;;;;;;;3.33;1.60;;;;;;;11.31;100.00;97820.19;5094448;28;20107;-79
2023/05/04 03:38:01;;;;;;;9.52;3.08;;;;;;;11.42;100.00;97818.56;5111015;28;20484;-77
2023/05/04 03:40:26;;;;;;;1.27;1.17;;;;;;;11.47;100.00;97820.13;5110945;28;20055;-74
2023/05/04 03:42:52;;;;;;;2.40;1.73;;;;;;;11.50;100.00;97814.56;5110439;28;20023;-76
2023/05/04 03:45:18;;;;;;;5.40;1.77;;;;;;;11.39;100.00;97808.03;5093674;28;20108;-77
2023/05/04 03:47:43;;;;;;;4.25;2.33;;;;;;;11.48;100.00;97820.00;5093605;28;20051;-78
2023/05/04 03:50:10;;;;;;;2.45;1.35;;;;;;;11.52;100.00;97821.56;5093393;28;20402;-75
2023/05/04 03:52:35;;;;;;;1.80;1.70;;;;;;;11.57;100.00;97824.78;5110198;28;20506;-77
2023/05/04 03:55:01;;;;;;;4.25;2.78;;;;;;;11.58;100.00;97831.03;5110015;28;20059;-77
2023/05/04 03:57:26;;;;;;;1.17;1.08;;;;;;;11.60;100.00;97837.13;5110417;28;20034;-77
2023/05/04 03:59:52;;;;;;;1.95;1.60;;;;;;;11.56;100.00;97835.63;5093035;28;20402;-77
2023/05/04 04:02:17;;;;;;;3.70;2.53;;;;;;;11.48;100.00;97821.81;5110358;28;20455;-77
2023/05/04 04:04:43;;;;;;;1.20;0.93;;;;;;;11.52;100.00;97826.03;5110454;28;20019;-76
2023/05/04 04:07:08;;;;;;;2.40;1.65;;;;;;;11.56;100.00;97822.22;5109976;28;20555;-77
2023/05/04 04:09:34;;;;;;;5.47;1.92;;;;;;;11.60;100.00;97826.41;5093305;28;20491;-80
2023/05/04 04:11:59;;;;;;;2.92;2.00;;;;;;;11.61;100.00;97838.88;5109970;28;20066;-77
2023/05/04 04:14:25;;;;;;;5.75;1.70;;;;;;;11.58;100.00;97837.25;5110774;28;20042;-78
2023/05/04 04:16:50;;;;;;;4.00;1.50;;;;;;;11.64;100.00;97841.38;5092654;28;20031;-78
2023/05/04 04:19:16;;;;;;;2.60;1.55;;;;;;;11.49;100.00;97832.47;5110420;28;20119;-78
2023/05/04 04:21:41;;;;;;;3.63;1.27;;;;;;;11.47;100.00;97836.19;5110195;28;20031;-78
2023/05/04 04:24:07;;;;;;;2.13;1.60;;;;;;;11.54;100.00;97834.84;5109582;28;20020;-79
2023/05/04 04:26:33;;;;;;;3.75;1.80;;;;;;;11.48;100.00;97838.75;5092991;28;20035;-79
2023/05/04 04:28:58;;;;;;;2.47;1.77;;;;;;;11.48;100.00;97836.06;5087370;28;20487;-78
2023/05/04 04:31:24;;;;;;;1.60;1.20;;;;;;;11.49;100.00;97835.13;5109866;28;20094;-78
2023/05/04 04:33:50;;;;;;;1.25;1.00;;;;;;;11.51;100.00;97833.22;5093417;28;20092;-78
2023/05/04 04:36:15;;;;;;;9.55;1.00;;;;;;;11.50;100.00;97820.78;5109939;28;20102;-78
2023/05/04 04:38:42;;;;;;;2.03;1.60;;;;;;;11.59;100.00;97830.94;5092756;28;20179;-76
2023/05/04 04:41:07;;;;;;;3.35;1.42;;;;;;;11.61;100.00;97830.84;5093307;28;20118;-77
2023/05/04 04:43:33;;;;;;;1.17;1.02;;;;;;;11.61;100.00;97831.69;5096431;28;20114;-75
2023/05/04 04:45:59;;;;;;;3.72;2.45;;;;;;;11.65;100.00;97835.94;5113988;28;20038;-78
2023/05/04 04:48:24;;;;;;;1.30;1.20;;;;;;;11.76;100.00;97837.97;5096919;28;20046;-77
2023/05/04 04:50:51;;;;;;;2.15;1.63;;;;;;;11.86;100.00;97836.44;5096980;28;20172;-78
2023/05/04 04:53:17;;;;;;;1.17;1.08;;;;;;;11.88;100.00;97840.75;5114348;28;20383;-77
2023/05/04 04:55:42;;;;;;;5.25;1.73;;;;;;;11.81;100.00;97820.63;5096961;28;20035;-77
2023/05/04 04:58:08;;;;;;;2.75;1.23;;;;;;;11.98;100.00;97832.97;5114048;28;20031;-77
2023/05/04 05:00:34;;;;;;;3.33;2.28;;;;;;;12.02;100.00;97834.53;5096819;28;20047;-77
2023/05/04 05:03:00;;;;;;;1.65;1.45;;;;;;;11.99;100.00;97837.41;5096969;28;20032;-77
2023/05/04 05:05:26;;;;;;;2.60;1.42;;;;;;;11.97;100.00;97831.25;5113892;28;20398;-78
2023/05/04 05:07:53;;;;;;;2.88;1.48;;;;;;;12.05;100.00;97820.06;5096813;28;20033;-77
2023/05/04 05:10:19;;;;;;;2.80;1.70;;;;;;;11.92;100.00;97817.28;5113862;28;20506;-77
2023/05/04 05:12:45;;;;;;;5.20;3.25;;;;;;;12.03;100.00;97836.22;5096733;28;20032;-77
2023/05/04 05:15:11;;;;;;;8.50;5.18;;;;;;;11.95;100.00;97833.19;5113569;28;20031;-76
2023/05/04 05:17:37;;;;;;;13.55;5.05;;;;;;;11.94;100.00;97842.16;5113598;28;20024;-77
2023/05/04 05:20:10;;;;;;;7.60;5.40;;;;;;;11.99;100.00;97849.94;5096554;28;20034;-78
2023/05/04 05:22:39;;;;;;;6.95;3.78;;;;;;;12.03;100.00;97844.28;5097078;28;20027;-78
2023/05/04 05:25:06;;;;;;;10.00;4.70;;;;;;;12.03;100.00;97860.34;5096555;28;20080;-77
2023/05/04 05:27:33;;;;;;;6.13;3.05;;;;;;;12.00;100.00;97857.03;5096127;28;20031;-76
2023/05/04 05:30:00;;;;;;;0.93;0.93;;;;;;;11.93;100.00;97865.44;5096298;28;20050;-77
2023/05/04 05:32:25;;;;;;;3.50;2.45;;;;;;;11.99;100.00;97855.31;5113421;28;20037;-77
2023/05/04 05:34:51;;;;;;;2.83;1.50;;;;;;;11.96;100.00;97851.00;5112899;28;20016;-77
2023/05/04 05:37:16;;;;;;;4.82;2.58;;;;;;;11.92;100.00;97855.69;5096343;28;20055;-77
2023/05/04 05:39:42;;;;;;;2.65;1.83;;;;;;;11.80;100.00;97860.94;5096126;28;20035;-77
2023/05/04 05:42:07;;;;;;;4.10;1.50;;;;;;;11.78;100.00;97876.28;5095926;28;20027;-77
2023/05/04 05:44:36;;;;;;;4.28;2.60;;;;;;;11.84;100.00;97875.88;5095889;28;20024;-77
2023/05/04 05:47:02;;;;;;;3.17;1.25;;;;;;;11.89;100.00;97888.03;5096368;28;20027;-77
2023/05/04 05:49:28;;;;;;;1.95;1.27;;;;;;;11.95;100.00;97897.53;5112906;28;20027;-77
2023/05/04 05:51:53;;;;;;;2.80;1.63;;;;;;;11.99;100.00;97892.84;5112616;28;20425;-77
2023/05/04 05:54:21;;;;;;;4.20;2.17;;;;;;;11.96;100.00;97888.53;5111989;28;20034;-77
2023/05/04 05:56:47;;;;;;;1.23;0.77;;;;;;;12.00;100.00;97898.09;5112616;28;20024;-77
2023/05/04 05:59:13;;;;;;;7.43;1.77;;;;;;;11.90;100.00;97888.91;5095638;28;20107;-77
2023/05/04 06:01:39;;;;;;;0.95;0.75;;;;;;;11.93;100.00;97888.72;5095542;28;20051;-78
2023/05/04 06:04:05;;;;;;;0.60;0.60;;;;;;;12.01;100.00;97889.09;5112447;28;20517;-78
2023/05/04 06:06:30;;;;;;;1.92;1.50;;;;;;;12.08;100.00;97882.41;5095623;28;20100;-76
2023/05/04 06:08:56;;;;;;;2.33;1.92;;;;;;;12.04;100.00;97870.13;5095021;28;20032;-76
2023/05/04 06:11:21;;;;;;;4.32;1.73;;;;;;;12.04;100.00;97867.47;5095373;28;20046;-76
2023/05/04 06:13:47;;;;;;;2.38;1.58;;;;;;;12.07;100.00;97864.59;5112162;28;20443;-78
2023/05/04 06:16:13;;;;;;;2.25;1.80;;;;;;;12.15;100.00;97856.91;5095459;28;20035;-77
2023/05/04 06:18:39;;;;;;;2.53;1.55;;;;;;;12.18;100.00;97869.28;5095519;28;20031;-77
2023/05/04 06:21:04;;;;;;;0.90;0.90;;;;;;;12.29;100.00;97869.44;5087067;28;20118;-77
2023/05/04 06:23:30;;;;;;;3.28;1.63;;;;;;;12.34;100.00;97860.16;5095425;28;20027;-77
2023/05/04 06:25:56;;;;;;;4.35;1.98;;;;;;;12.33;100.00;97861.13;5094609;28;20050;-75
2023/05/04 06:28:22;;;;;;;3.80;1.90;;;;;;;12.27;100.00;97868.69;5095186;28;20033;-78
2023/05/04 06:30:49;;;;;;;2.15;1.95;;;;;;;12.30;100.00;97864.00;5095022;28;20148;-76
2023/05/04 06:33:15;;;;;;;4.32;2.25;;;;;;;12.25;100.00;97866.09;5094892;28;20111;-76
2023/05/04 06:35:40;;;;;;;3.28;1.88;;;;;;;12.32;100.00;97875.47;5112031;28;20027;-76
2023/05/04 06:38:06;;;;;;;2.88;2.17;;;;;;;12.25;100.00;97866.09;5094938;28;20030;-77
2023/05/04 06:40:31;;;;;;;2.38;1.88;;;;;;;12.33;100.00;97879.03;5111650;28;20030;-76
2023/05/04 06:42:57;;;;;;;2.15;1.88;;;;;;;12.41;100.00;97882.94;5094389;28;20035;-76
2023/05/04 06:45:22;;;;;;;1.30;1.05;;;;;;;12.37;100.00;97873.38;5094640;28;20023;-77
2023/05/04 06:47:48;;;;;;;1.75;1.45;;;;;;;12.41;100.00;97865.97;5111666;28;20422;-76
2023/05/04 06:50:14;;;;;;;1.38;1.27;;;;;;;12.49;100.00;97867.22;5094448;28;20032;-77
2023/05/04 06:52:42;;;;;;;4.82;2.22;;;;;;;12.60;100.00;97869.22;5094443;28;20059;-77
2023/05/04 06:55:08;;;;;;;1.33;1.23;;;;;;;12.62;100.00;97867.28;5093994;28;20050;-77
2023/05/04 06:57:34;;;;;;;1.23;1.15;;;;;;;12.60;100.00;97845.06;5094462;28;20031;-77
2023/05/04 06:59:59;;;;;;;1.50;1.25;;;;;;;12.68;100.00;97848.09;5111389;28;20042;-76
2023/05/04 07:02:25;;;;;;;3.00;1.50;;;;;;;12.73;100.00;97850.50;5094301;28;20028;-77
2023/05/04 07:04:51;;;;;;;2.38;1.52;;;;;;;12.77;100.00;97846.63;5094067;28;20019;-75
2023/05/04 07:07:17;;;;;;;2.70;1.70;;;;;;;12.77;100.00;97841.25;5111288;28;20106;-77
2023/05/04 07:09:43;;;;;;;2.75;1.40;;;;;;;12.88;100.00;97841.41;5111095;28;20110;-77
2023/05/04 07:12:08;;;;;;;4.38;2.25;;;;;;;12.87;100.00;97851.28;5094143;28;20088;-78
2023/05/04 07:14:34;;;;;;;4.38;2.22;;;;;;;12.89;100.00;97848.50;5111356;28;20034;-78
2023/05/04 07:17:00;;;;;;;3.30;1.27;;;;;;;12.91;100.00;97862.69;5094254;28;20314;-78
2023/05/04 07:19:26;;;;;;;1.90;1.42;;;;;;;12.87;100.00;97850.41;5111122;28;20110;-78
2023/05/04 07:21:51;;;;;;;2.85;2.13;;;;;;;12.72;100.00;97846.94;5111449;28;20406;-78
2023/05/04 07:24:17;;;;;;;1.95;1.85;;;;;;;12.67;100.00;97842.84;5110650;28;20019;-77
2023/05/04 07:26:42;;;;;;;2.30;1.58;;;;;;;12.69;100.00;97848.94;5094141;28;20031;-77
2023/05/04 07:29:08;;;;;;;0.98;0.98;;;;;;;12.75;100.00;97857.47;5111103;28;20040;-77
2023/05/04 07:31:35;;;;;;;2.50;1.55;;;;;;;12.71;100.00;97855.06;5110705;28;20055;-77
2023/05/04 07:34:00;;;;;;;4.18;1.85;;;;;;;12.52;100.00;97852.72;5093872;28;20039;-77
2023/05/04 07:36:26;;;;;;;2.13;1.63;;;;;;;12.56;100.00;97866.81;5110892;28;20057;-77
2023/05/04 07:38:52;;;;;;;28.02;1.80;;;;;;;12.62;100.00;97866.41;5110561;28;20081;-77
2023/05/04 07:41:18;;;;;;;1.33;1.17;;;;;;;12.63;100.00;97873.50;5110352;28;20031;-77
2023/05/04 07:43:45;;;;;;;0.52;0.52;;;;;;;12.71;100.00;97884.59;5110755;28;20023;-77
2023/05/04 07:46:11;;;;;;;6.32;2.13;;;;;;;12.65;100.00;97882.31;5110644;28;20049;-76
2023/05/04 07:48:37;;;;;;;12.18;1.45;;;;;;;12.70;100.00;97890.94;5093644;28;20027;-77
2023/05/04 07:51:02;;;;;;;1.42;1.33;;;;;;;12.67;100.00;97908.13;5110552;28;20084;-77
2023/05/04 07:53:28;;;;;;;1.33;0.93;;;;;;;12.65;100.00;97917.19;5110570;28;20058;-77
2023/05/04 07:55:56;;;;;;;1.60;1.25;;;;;;;12.61;100.00;97904.97;5093567;28;20028;-75
2023/05/04 07:58:22;;;;;;;2.03;1.40;;;;;;;12.66;100.00;97902.84;5110337;28;20098;-75
2023/05/04 08:00:48;;;;;;;4.95;1.65;;;;;;;12.71;100.00;97904.25;5110597;28;20066;-75
2023/05/04 08:03:13;;;;;;;6.00;3.03;;;;;;;12.67;100.00;97907.25;5110143;28;20027;-75
2023/05/04 08:05:39;;;;;;;0.75;0.75;;;;;;;12.64;100.00;97912.81;5110377;28;20506;-76
2023/05/04 08:08:05;;;;;;;0.65;0.50;;;;;;;12.65;100.00;97909.16;5110222;28;20483;-75
2023/05/04 08:10:30;;;;;;;4.13;1.85;;;;;;;12.63;100.00;97913.75;5110044;28;20031;-76
2023/05/04 08:12:56;;;;;;;1.52;1.42;;;;;;;12.56;100.00;97920.47;5093295;28;20046;-76
2023/05/04 08:15:22;;;;;;;2.13;1.58;;;;;;;12.47;100.00;97922.81;5092923;28;20043;-76
2023/05/04 08:17:47;;;;;;;3.13;1.60;;;;;;;12.51;100.00;97918.09;5110938;28;20038;-76
2023/05/04 08:20:13;;;;;;;0.65;0.65;;;;;;;12.43;100.00;97905.16;5093268;28;20114;-76
2023/05/04 08:22:38;;;;;;;0.75;0.75;;;;;;;12.56;100.00;97915.97;5092664;28;20460;-78
2023/05/04 08:25:04;;;;;;;2.13;0.57;;;;;;;12.55;100.00;97908.03;5110187;28;20015;-76
2023/05/04 08:27:30;;;;;;;2.25;1.50;;;;;;;12.46;100.00;97915.69;5092722;28;20403;-74
2023/05/04 08:29:56;;;;;;;1.73;1.20;;;;;;;12.46;100.00;97926.44;5110182;28;20062;-75
2023/05/04 08:32:22;;;;;;;6.25;1.52;;;;;;;12.48;100.00;97937.09;5092894;28;20031;-75
2023/05/04 08:34:47;;;;;;;3.78;1.38;;;;;;;12.34;100.00;97912.94;5092875;28;20034;-75
2023/05/04 08:37:13;;;;;;;0.57;0.57;;;;;;;12.41;100.00;97928.56;5092950;28;20424;-75
2023/05/04 08:39:38;;;;;;;1.40;0.98;;;;;;;12.52;100.00;97930.53;5109898;28;20046;-76
2023/05/04 08:42:04;;;;;;;5.65;2.58;;;;;;;12.54;100.00;97925.09;5109835;28;20475;-76
2023/05/04 08:44:30;;;;;;;2.38;1.38;;;;;;;12.57;100.00;97922.22;5092735;28;20019;-76
2023/05/04 08:46:56;;;;;;;6.80;2.42;;;;;;;12.67;100.00;97921.53;5092857;28;20063;-75
2023/05/04 08:49:22;;;;;;;1.98;1.02;;;;;;;12.70;100.00;97928.53;5092601;28;20039;-77
2023/05/04 08:51:49;;;;;;;0.60;0.60;;;;;;;12.74;100.00;97919.28;5109569;28;20020;-75
2023/05/04 08:54:16;;;;;;;0.73;0.73;;;;;;;12.76;100.00;97910.22;5109727;28;20479;-75
2023/05/04 08:56:44;;;;;;;7.22;2.17;;;;;;;12.66;100.00;97921.63;5092606;28;20015;-75
2023/05/04 08:59:18;;;;;;;1.00;0.75;;;;;;;12.69;100.00;97914.25;5092916;28;20024;-75
2023/05/04 09:01:46;;;;;;;1.60;0.93;;;;;;;12.73;100.00;97914.91;5092946;28;20470;-77
2023/05/04 09:04:11;;;;;;;3.15;1.85;;;;;;;12.69;100.00;97908.00;5109370;28;20105;-75
2023/05/04 09:06:37;;;;;;;1.27;1.17;;;;;;;12.65;100.00;97910.03;5092584;28;20073;-76
2023/05/04 09:09:03;;;;;;;5.30;1.63;;;;;;;12.62;100.00;97899.47;5092402;28;20115;-75
2023/05/04 09:11:29;;;;;;;1.05;0.45;;;;;;;12.55;100.00;97918.78;5109794;28;20020;-76
2023/05/04 09:13:54;;;;;;;0.57;0.32;;;;;;;12.50;100.00;97911.88;5092351;28;20051;-77
2023/05/04 09:16:20;;;;;;;0.63;0.63;;;;;;;12.47;100.00;97912.06;5109325;28;20020;-76
2023/05/04 09:18:46;;;;;;;0.77;0.73;;;;;;;12.47;100.00;97921.94;5092728;28;20019;-76
2023/05/04 09:21:11;;;;;;;0.82;0.80;;;;;;;12.46;100.00;97920.19;5091940;28;20050;-75
2023/05/04 09:23:47;;;;;;;0.52;0.52;;;;;;;12.39;100.00;97908.16;5092594;28;20085;-75
2023/05/04 09:26:13;;;;;;;6.45;2.38;;;;;;;12.49;100.00;97926.22;5109245;28;20019;-75
2023/05/04 09:28:39;;;;;;;2.17;1.15;;;;;;;12.50;100.00;97927.97;5092455;28;20023;-76
2023/05/04 09:31:05;;;;;;;0.35;0.35;;;;;;;12.56;100.00;97925.84;5095999;28;20101;-76
2023/05/04 09:33:31;;;;;;;7.82;6.20;;;;;;;12.61;100.00;97918.38;5096250;28;20502;-75
2023/05/04 09:35:59;;;;;;;6.20;2.13;;;;;;;12.59;100.00;97910.41;5095979;28;20027;-76
2023/05/04 09:38:25;;;;;;;1.55;0.90;;;;;;;12.72;100.00;97922.09;5113128;28;20501;-75
2023/05/04 09:40:51;;;;;;;1.55;1.25;;;;;;;12.76;100.00;97912.03;5114491;28;20024;-76
2023/05/04 09:43:17;;;;;;;1.20;1.10;;;;;;;12.79;100.00;97904.63;5113163;28;20103;-76
2023/05/04 09:45:45;;;;;;;2.60;1.25;;;;;;;12.75;100.00;97908.47;5095892;28;21529;-76
2023/05/04 09:48:15;;;;;;;1.67;1.42;;;;;;;12.84;100.00;97909.69;5096002;28;20217;-76
2023/05/04 09:50:50;;;;;;;0.77;0.60;;;;;;;12.94;100.00;97911.69;5112572;28;20051;-76
2023/05/04 09:53:16;;;;;;;2.10;1.35;;;;;;;12.92;100.00;97908.22;5095852;28;20471;-77
2023/05/04 09:55:45;;;;;;;1.15;0.70;;;;;;;12.98;100.00;97901.63;5112537;28;20029;-77
2023/05/04 09:58:13;;;;;;;1.25;0.90;;;;;;;13.01;100.00;97896.88;5112623;28;20100;-76
2023/05/04 10:00:38;;;;;;;0.32;0.32;;;;;;;13.01;100.00;97894.19;5112024;28;20026;-74
2023/05/04 10:03:05;;;;;;;0.65;0.63;;;;;;;12.91;100.00;97894.91;5095535;28;20483;-75
2023/05/04 10:05:30;;;;;;;0.73;0.73;;;;;;;12.93;100.00;97895.66;5095409;28;20471;-74
2023/05/04 10:07:59;;;;;;;0.93;0.93;;;;;;;12.93;100.00;97895.66;5095416;28;20046;-75
2023/05/04 10:10:25;;;;;;;1.50;0.55;;;;;;;13.01;100.00;97890.66;5095566;28;20520;-77
2023/05/04 10:12:51;;;;;;;3.13;1.08;;;;;;;13.01;100.00;97893.34;5112164;28;20118;-76
2023/05/04 10:15:17;;;;;;;2.05;1.75;;;;;;;13.23;100.00;97892.78;5095269;28;20034;-76
2023/05/04 10:18:10;;;;;;;1.20;0.93;;;;;;;13.12;100.00;97892.66;5095206;28;20390;-76
2023/05/04 10:20:57;;;;;;;6.55;1.85;;;;;;;13.05;100.00;97884.09;5113417;28;20020;-75
2023/05/04 10:23:48;;;;;;;0.63;0.63;;;;;;;13.08;100.00;97881.25;5111841;28;20020;-75
2023/05/04 10:26:25;;;;;;;1.65;0.82;;;;;;;13.03;100.00;97878.00;5112009;28;20435;-76
2023/05/04 10:28:52;;;;;;;4.22;1.30;;;;;;;13.03;100.00;97872.63;5112032;28;20027;-76
2023/05/04 10:31:18;;;;;;;4.05;1.40;;;;;;;12.98;100.00;97869.38;5111892;28;20047;-76
2023/05/04 10:33:44;;;;;;;0.40;0.40;;;;;;;13.01;100.00;97864.66;5112145;28;20213;-75
2023/05/04 10:36:10;;;;;;;3.25;1.10;;;;;;;13.06;100.00;97858.97;5094813;28;20028;-76
2023/05/04 10:38:37;;;;;;;1.88;1.08;;;;;;;13.20;100.00;97868.81;5111965;28;20147;-76
2023/05/04 10:41:16;;;;;;;0.90;0.90;;;;;;;13.23;100.00;97866.78;5094580;28;20525;-75
2023/05/04 10:43:47;;;;;;;5.80;1.27;;;;;;;13.31;100.00;97875.22;5111556;28;20027;-76
2023/05/04 10:46:31;;;;;;;1.50;1.33;;;;;;;13.31;100.00;97867.16;5111890;28;20038;-77
2023/05/04 10:48:56;;;;;;;0.70;0.70;;;;;;;13.30;100.00;97862.72;5111705;28;20486;-76
2023/05/04 10:51:23;;;;;;;2.03;1.15;;;;;;;13.28;100.00;97853.06;5111781;28;20020;-76
2023/05/04 10:53:49;;;;;;;0.80;0.80;;;;;;;13.16;100.00;97849.38;5094206;28;20414;-75
2023/05/04 10:56:22;;;;;;;1.10;0.95;;;;;;;13.11;100.00;97854.19;5111830;28;20070;-76
2023/05/04 10:58:48;;;;;;;0.75;0.75;;;;;;;13.09;100.00;97860.63;5094247;28;20031;-75
2023/05/04 11:01:13;;;;;;;0.98;0.57;;;;;;;13.09;100.00;97857.94;5111439;28;20046;-75
2023/05/04 11:03:39;;;;;;;0.60;0.50;;;;;;;13.17;100.00;97864.50;5094326;28;20024;-74
2023/05/04 11:06:15;;;;;;;4.95;2.30;;;;;;;13.26;100.00;97863.06;5111558;28;20448;-80
2023/05/04 11:08:41;;;;;;;1.33;0.88;;;;;;;13.23;100.00;97861.41;5094693;28;20024;-76
2023/05/04 11:11:06;;;;;;;0.40;0.40;;;;;;;13.10;100.00;97852.50;5104620;28;20104;-78
2023/05/04 11:13:33;;;;;;;1.08;0.85;;;;;;;12.93;100.00;97869.69;5111643;28;20398;-78
2023/05/04 11:15:59;;;;;;;0.30;0.30;;;;;;;12.82;100.00;97869.53;5094199;28;20042;-80
2023/05/04 11:18:39;;;;;;;0.50;0.50;;;;;;;12.95;100.00;97885.69;5091881;28;20402;-76
2023/05/04 11:21:05;;;;;;;0.47;0.47;;;;;;;12.96;100.00;97898.16;5093278;28;20023;-76